createdAt,value
2022-11-20T00:00:33.751Z,18.25
2022-11-20T00:03:36.554Z,18.30
2022-11-20T00:06:39.332Z,18.27
2022-11-20T00:09:42.130Z,18.20
2022-11-20T00:12:46.271Z,18.19
2022-11-20T00:15:49.123Z,18.16
2022-11-20T00:18:51.958Z,18.14
2022-11-20T00:21:56.413Z,18.12
2022-11-20T00:24:59.483Z,18.10
2022-11-20T00:28:03.680Z,18.07
2022-11-20T00:31:07.033Z,18.06
2022-11-20T00:34:09.848Z,18.04
2022-11-20T00:37:12.627Z,18.02
2022-11-20T00:40:15.443Z,17.98
2022-11-20T00:43:19.683Z,17.96
2022-11-20T00:46:23.910Z,17.94
2022-11-20T00:49:26.738Z,17.92
2022-11-20T00:52:29.535Z,17.91
2022-11-20T00:55:32.314Z,17.89
2022-11-20T00:58:37.736Z,17.89
2022-11-20T01:01:40.667Z,17.87
2022-11-20T01:04:43.418Z,17.86
2022-11-20T01:07:46.239Z,17.88
2022-11-20T01:10:49.002Z,17.96
2022-11-20T01:13:54.506Z,17.89
2022-11-20T01:16:57.339Z,17.86
2022-11-20T01:20:00.160Z,17.85
2022-11-20T01:23:02.967Z,17.82
2022-11-20T01:26:06.392Z,17.80
2022-11-20T01:29:14.698Z,17.79
2022-11-20T01:32:17.511Z,17.77
2022-11-20T01:35:20.403Z,17.75
2022-11-20T01:38:23.709Z,17.76
2022-11-20T01:41:44.646Z,17.76
2022-11-20T01:44:58.836Z,17.73
2022-11-20T01:48:01.681Z,17.69
2022-11-20T01:51:05.289Z,17.65
2022-11-20T01:54:09.724Z,17.64
2022-11-20T01:57:14.171Z,17.60
2022-11-20T02:00:19.840Z,17.59
2022-11-20T02:03:23.001Z,17.55
2022-11-20T02:06:27.170Z,17.53
2022-11-20T02:09:30.503Z,17.51
2022-11-20T02:12:53.339Z,17.49
2022-11-20T02:15:57.616Z,17.49
2022-11-20T02:19:01.616Z,17.48
2022-11-20T02:22:06.961Z,17.46
2022-11-20T02:25:12.000Z,17.44
2022-11-20T02:28:15.192Z,17.42
2022-11-20T02:31:18.021Z,17.44
2022-11-20T02:34:20.864Z,17.46
2022-11-20T02:37:24.013Z,17.42
2022-11-20T02:40:28.503Z,17.40
2022-11-20T02:43:31.269Z,17.41
2022-11-20T02:46:34.370Z,17.40
2022-11-20T02:49:37.161Z,17.37
2022-11-20T02:52:39.971Z,17.34
2022-11-20T02:55:44.216Z,17.34
2022-11-20T02:58:47.052Z,17.31
2022-11-20T03:01:49.850Z,17.34
2022-11-20T03:04:52.607Z,17.33
2022-11-20T03:07:55.407Z,17.31
2022-11-20T03:11:03.813Z,17.33
2022-11-20T03:14:06.859Z,17.30
2022-11-20T03:17:10.367Z,17.27
2022-11-20T03:20:13.453Z,17.28
2022-11-20T03:23:16.317Z,17.26
2022-11-20T03:26:21.249Z,17.24
2022-11-20T03:29:24.068Z,17.21
2022-11-20T03:32:26.944Z,17.20
2022-11-20T03:35:29.776Z,17.18
2022-11-20T03:38:32.923Z,17.19
2022-11-20T03:41:39.572Z,17.19
2022-11-20T03:44:42.364Z,17.17
2022-11-20T03:47:45.283Z,17.15
2022-11-20T03:50:48.691Z,17.15
2022-11-20T03:53:52.972Z,17.18
2022-11-20T03:56:57.084Z,17.14
2022-11-20T03:59:59.914Z,17.15
2022-11-20T04:03:02.934Z,17.14
2022-11-20T04:06:06.514Z,17.12
2022-11-20T04:09:09.296Z,17.08
2022-11-20T04:12:13.431Z,17.10
2022-11-20T04:15:17.564Z,17.08
2022-11-20T04:18:20.406Z,17.08
2022-11-20T04:21:23.533Z,17.07
2022-11-20T04:24:26.380Z,17.04
2022-11-20T04:27:30.523Z,17.02
2022-11-20T04:30:33.399Z,17.02
2022-11-20T04:33:36.459Z,17.01
2022-11-20T04:36:39.268Z,17.01
2022-11-20T04:39:42.065Z,17.03
2022-11-20T04:42:46.229Z,16.96
2022-11-20T04:45:52.558Z,16.97
2022-11-20T04:48:55.396Z,16.94
2022-11-20T04:51:58.224Z,16.94
2022-11-20T04:55:00.991Z,16.94
2022-11-20T04:58:05.115Z,16.98
2022-11-20T05:01:08.797Z,16.95
2022-11-20T05:04:11.624Z,16.94
2022-11-20T05:07:14.497Z,16.93
2022-11-20T05:10:17.625Z,16.93
2022-11-20T05:13:21.769Z,16.91
2022-11-20T05:16:25.250Z,16.91
2022-11-20T05:19:28.301Z,16.90
2022-11-20T05:22:31.116Z,16.89
2022-11-20T05:25:33.868Z,16.85
2022-11-20T05:28:38.067Z,16.86
2022-11-20T05:31:41.273Z,16.89
2022-11-20T05:34:44.104Z,16.86
2022-11-20T05:37:46.900Z,16.83
2022-11-20T05:40:49.685Z,16.82
2022-11-20T05:43:53.870Z,16.86
2022-11-20T05:46:56.695Z,16.82
2022-11-20T05:49:59.465Z,16.82
2022-11-20T05:53:02.502Z,16.82
2022-11-20T05:56:06.710Z,16.77
2022-11-20T05:59:10.926Z,16.83
2022-11-20T06:02:13.794Z,16.82
2022-11-20T06:05:17.844Z,16.78
2022-11-20T06:08:20.675Z,16.80
2022-11-20T06:11:23.640Z,16.77
2022-11-20T06:14:27.896Z,16.78
2022-11-20T06:17:30.681Z,16.76
2022-11-20T06:20:37.850Z,16.77
2022-11-20T06:23:43.992Z,16.73
2022-11-20T06:26:49.022Z,16.76
2022-11-20T06:29:53.262Z,16.73
2022-11-20T06:32:56.105Z,16.73
2022-11-20T06:36:01.029Z,16.76
2022-11-20T06:39:05.651Z,16.75
2022-11-20T06:42:08.503Z,16.74
2022-11-20T06:45:12.909Z,16.75
2022-11-20T06:48:15.668Z,16.77
2022-11-20T06:51:18.950Z,16.82
2022-11-20T06:54:21.755Z,16.71
2022-11-20T06:57:24.546Z,16.73
2022-11-20T07:00:28.830Z,16.79
2022-11-20T07:03:31.643Z,16.71
2022-11-20T07:06:34.430Z,16.68
2022-11-20T07:09:37.229Z,16.68
2022-11-20T07:12:39.987Z,16.73
2022-11-20T07:15:44.224Z,16.66
2022-11-20T07:18:50.592Z,16.66
2022-11-20T07:21:53.896Z,16.68
2022-11-20T07:24:56.694Z,16.67
2022-11-20T07:27:59.599Z,16.66
2022-11-20T07:31:03.970Z,16.68
2022-11-20T07:34:06.769Z,16.64
2022-11-20T07:37:10.631Z,16.68
2022-11-20T07:40:14.145Z,16.63
2022-11-20T07:43:17.056Z,16.64
2022-11-20T07:46:21.233Z,16.67
2022-11-20T07:49:25.026Z,16.65
2022-11-20T07:52:27.792Z,16.67
2022-11-20T07:55:30.604Z,16.59
2022-11-20T07:58:34.158Z,16.63
2022-11-20T08:01:38.624Z,16.64
2022-11-20T08:04:41.423Z,16.64
2022-11-20T08:07:44.964Z,16.62
2022-11-20T08:10:47.805Z,16.62
2022-11-20T08:14:08.150Z,16.67
2022-11-20T08:17:12.394Z,16.62
2022-11-20T08:20:15.254Z,16.59
2022-11-20T08:23:18.139Z,16.60
2022-11-20T08:26:20.989Z,16.57
2022-11-20T08:29:24.157Z,16.54
2022-11-20T08:32:28.484Z,16.53
2022-11-20T08:35:34.514Z,16.53
2022-11-20T08:38:37.388Z,16.54
2022-11-20T08:41:40.147Z,16.66
2022-11-20T08:44:44.175Z,16.57
2022-11-20T08:47:48.601Z,16.57
2022-11-20T08:50:51.362Z,16.60
2022-11-20T08:53:54.167Z,16.57
2022-11-20T08:56:57.121Z,16.52
2022-11-20T09:00:05.981Z,16.56
2022-11-20T09:03:11.162Z,16.49
2022-11-20T09:06:13.888Z,16.55
2022-11-20T09:09:16.681Z,16.60
2022-11-20T09:12:19.474Z,16.51
2022-11-20T09:15:22.274Z,16.56
2022-11-20T09:18:26.639Z,16.53
2022-11-20T09:21:29.986Z,16.52
2022-11-20T09:24:32.751Z,16.49
2022-11-20T09:27:36.669Z,16.50
2022-11-20T09:30:39.792Z,16.47
2022-11-20T09:33:44.105Z,16.47
2022-11-20T09:36:47.345Z,16.46
2022-11-20T09:39:50.050Z,16.50
2022-11-20T09:42:57.380Z,16.51
2022-11-20T09:46:07.076Z,16.73
2022-11-20T09:49:20.062Z,16.54
2022-11-20T09:52:28.180Z,16.45
2022-11-20T09:55:32.129Z,16.46
2022-11-20T09:58:37.480Z,16.40
2022-11-20T10:01:41.865Z,16.51
2022-11-20T10:04:48.193Z,16.53
2022-11-20T10:07:57.046Z,16.53
2022-11-20T10:11:06.788Z,16.57
2022-11-20T10:14:18.532Z,16.51
2022-11-20T10:17:26.017Z,16.49
2022-11-20T10:20:37.796Z,16.53
2022-11-20T10:23:52.890Z,16.49
2022-11-20T10:26:59.621Z,16.48
2022-11-20T10:30:03.326Z,16.48
2022-11-20T10:33:07.536Z,16.45
2022-11-20T10:36:16.200Z,16.42
2022-11-20T10:39:21.417Z,16.43
2022-11-20T10:42:29.198Z,16.37
2022-11-20T10:45:53.176Z,16.35
2022-11-20T10:48:55.911Z,16.32
2022-11-20T10:52:05.227Z,16.37
2022-11-20T10:55:13.870Z,16.36
2022-11-20T10:58:19.110Z,16.40
2022-11-20T11:01:24.304Z,16.34
2022-11-20T11:04:34.960Z,16.37
2022-11-20T11:07:40.652Z,16.33
2022-11-20T11:10:47.205Z,16.40
2022-11-20T11:13:50.087Z,16.31
2022-11-20T11:16:53.585Z,16.30
2022-11-20T11:20:03.389Z,16.33
2022-11-20T11:23:12.745Z,16.34
2022-11-20T11:26:21.582Z,16.34
2022-11-20T11:29:25.331Z,16.33
2022-11-20T11:32:28.198Z,16.33
2022-11-20T11:35:31.407Z,16.35
2022-11-20T11:38:38.087Z,16.40
2022-11-20T11:41:40.871Z,16.39
2022-11-20T11:45:12.181Z,16.39
2022-11-20T11:48:15.138Z,16.48
2022-11-20T11:51:22.164Z,16.55
2022-11-20T11:54:28.112Z,16.47
2022-11-20T11:57:34.206Z,16.53
2022-11-20T12:00:37.697Z,16.66
2022-11-20T12:03:42.391Z,16.51
2022-11-20T12:06:46.429Z,16.47
2022-11-20T12:09:51.730Z,16.77
2022-11-20T12:12:57.137Z,16.72
2022-11-20T12:16:00.388Z,16.84
2022-11-20T12:19:03.201Z,17.01
2022-11-20T12:22:12.550Z,17.03
2022-11-20T12:25:18.547Z,17.17
2022-11-20T12:28:30.333Z,17.21
2022-11-20T12:31:41.439Z,17.30
2022-11-20T12:34:53.628Z,17.35
2022-11-20T12:38:07.033Z,17.40
2022-11-20T12:41:35.972Z,17.46
2022-11-20T12:45:03.252Z,17.51
2022-11-20T12:48:19.358Z,17.56
2022-11-20T12:51:44.851Z,17.58
2022-11-20T12:55:11.141Z,17.64
2022-11-20T12:58:20.238Z,17.66
2022-11-20T13:01:40.625Z,17.68
2022-11-20T13:04:52.954Z,17.71
2022-11-20T13:07:55.862Z,17.75
2022-11-20T13:11:03.247Z,17.76
2022-11-20T13:14:13.382Z,17.76
2022-11-20T13:17:19.899Z,17.78
2022-11-20T13:20:22.869Z,17.82
2022-11-20T13:23:27.129Z,17.78
2022-11-20T13:26:30.210Z,17.82
2022-11-20T13:29:34.646Z,17.83
2022-11-20T13:32:37.449Z,17.89
2022-11-20T13:35:43.445Z,17.91
2022-11-20T13:38:48.229Z,17.91
2022-11-20T13:41:55.919Z,17.89
2022-11-20T13:45:03.534Z,18.01
2022-11-20T13:48:07.420Z,17.98
2022-11-20T13:51:27.666Z,18.01
2022-11-20T13:54:52.851Z,18.17
2022-11-20T13:58:01.911Z,18.12
2022-11-20T14:01:12.186Z,18.13
2022-11-20T14:04:17.802Z,18.14
2022-11-20T14:07:22.331Z,18.10
2022-11-20T14:10:31.333Z,18.17
2022-11-20T14:13:34.712Z,18.18
2022-11-20T14:16:40.186Z,18.16
2022-11-20T14:19:43.862Z,18.23
2022-11-20T14:22:50.643Z,18.16
2022-11-20T14:25:53.417Z,18.19
2022-11-20T14:28:56.294Z,18.19
2022-11-20T14:32:00.508Z,18.18
2022-11-20T14:35:08.980Z,18.21
2022-11-20T14:38:13.904Z,18.19
2022-11-20T14:41:21.129Z,18.19
2022-11-20T14:44:28.394Z,18.25
2022-11-20T14:47:33.990Z,18.29
2022-11-20T14:50:37.428Z,18.32
2022-11-20T14:53:40.223Z,18.29
2022-11-20T14:56:43.334Z,18.32
2022-11-20T14:59:46.120Z,18.34
2022-11-20T15:02:51.020Z,18.36
2022-11-20T15:05:53.816Z,18.33
2022-11-20T15:08:56.592Z,18.37
2022-11-20T15:12:00.980Z,18.37
2022-11-20T15:15:04.449Z,18.41
2022-11-20T15:18:13.091Z,18.43
2022-11-20T15:21:16.640Z,18.43
2022-11-20T15:24:19.670Z,18.42
2022-11-20T15:27:22.440Z,18.48
2022-11-20T15:30:25.569Z,18.47
2022-11-20T15:33:29.913Z,18.47
2022-11-20T15:36:32.742Z,18.49
2022-11-20T15:39:35.536Z,18.52
2022-11-20T15:42:38.345Z,18.51
2022-11-20T15:45:42.142Z,18.54
2022-11-20T15:48:48.468Z,18.54
2022-11-20T15:51:53.690Z,18.56
2022-11-20T15:54:56.507Z,18.54
2022-11-20T15:57:59.341Z,18.57
2022-11-20T16:01:03.395Z,18.60
2022-11-20T16:04:11.791Z,18.60
2022-11-20T16:07:14.873Z,18.65
2022-11-20T16:10:17.767Z,18.64
2022-11-20T16:13:37.922Z,18.64
2022-11-20T16:16:42.456Z,18.65
2022-11-20T16:19:46.618Z,18.67
2022-11-20T16:22:49.370Z,18.68
2022-11-20T16:25:52.411Z,18.72
2022-11-20T16:28:55.871Z,18.68
2022-11-20T16:31:58.682Z,18.68
2022-11-20T16:35:03.366Z,18.70
2022-11-20T16:38:06.242Z,18.72
2022-11-20T16:41:14.411Z,18.72
2022-11-20T16:44:17.374Z,18.75
2022-11-20T16:47:20.395Z,18.74
2022-11-20T16:50:24.523Z,18.77
2022-11-20T16:53:27.290Z,18.77
2022-11-20T16:56:30.063Z,18.80
2022-11-20T16:59:32.883Z,18.80
2022-11-20T17:02:35.639Z,18.82
2022-11-20T17:05:39.771Z,18.77
2022-11-20T17:08:42.843Z,18.79
2022-11-20T17:11:45.637Z,18.78
2022-11-20T17:14:48.414Z,18.87
2022-11-20T17:17:51.231Z,18.84
2022-11-20T17:20:55.397Z,18.83
2022-11-20T17:24:01.026Z,18.82
2022-11-20T17:27:03.792Z,18.85
2022-11-20T17:30:07.035Z,18.84
2022-11-20T17:33:09.955Z,18.89
2022-11-20T17:36:14.907Z,18.90
2022-11-20T17:39:18.476Z,18.93
2022-11-20T17:42:36.963Z,18.88
2022-11-20T17:45:39.819Z,18.90
2022-11-20T17:48:44.265Z,18.90
2022-11-20T17:51:48.456Z,19.05
2022-11-20T17:54:55.805Z,19.13
2022-11-20T17:58:02.795Z,19.13
2022-11-20T18:01:06.433Z,19.02
2022-11-20T18:04:09.380Z,19.02
2022-11-20T18:07:13.757Z,19.06
2022-11-20T18:10:16.594Z,19.29
2022-11-20T18:13:19.377Z,19.11
2022-11-20T18:16:22.146Z,19.08
2022-11-20T18:19:29.843Z,19.01
2022-11-20T18:22:36.270Z,19.11
2022-11-20T18:25:39.916Z,19.17
2022-11-20T18:28:42.716Z,19.11
2022-11-20T18:31:45.501Z,19.14
2022-11-20T18:34:48.620Z,19.16
2022-11-20T18:37:52.749Z,19.16
2022-11-20T18:40:55.524Z,19.14
2022-11-20T18:44:15.765Z,19.22
2022-11-20T18:47:19.820Z,19.25
2022-11-20T18:50:23.148Z,19.20
2022-11-20T18:53:27.328Z,19.13
2022-11-20T18:56:30.105Z,19.10
2022-11-20T18:59:33.006Z,19.06
2022-11-20T19:02:41.076Z,19.02
2022-11-20T19:05:44.824Z,18.99
2022-11-20T19:08:49.003Z,18.94
2022-11-20T19:11:51.950Z,18.93
2022-11-20T19:14:54.759Z,18.88
2022-11-20T19:17:58.870Z,18.83
2022-11-20T19:21:07.911Z,18.83
2022-11-20T19:24:12.166Z,18.77
2022-11-20T19:27:14.996Z,18.73
2022-11-20T19:30:17.944Z,18.71
2022-11-20T19:33:20.757Z,18.72
2022-11-20T19:36:24.654Z,18.62
2022-11-20T19:39:28.902Z,18.58
2022-11-20T19:42:31.729Z,18.55
2022-11-20T19:45:34.498Z,18.54
2022-11-20T19:48:38.365Z,18.57
2022-11-20T19:51:45.660Z,18.48
2022-11-20T19:54:49.838Z,18.48
2022-11-20T19:57:53.122Z,18.45
2022-11-20T20:00:55.928Z,18.46
2022-11-20T20:04:01.497Z,18.44
2022-11-20T20:07:06.249Z,18.39
2022-11-20T20:10:11.181Z,18.36
2022-11-20T20:13:13.978Z,18.35
2022-11-20T20:16:17.770Z,18.32
2022-11-20T20:19:20.598Z,18.34
2022-11-20T20:22:23.399Z,18.30
2022-11-20T20:25:27.539Z,18.27
2022-11-20T20:28:30.621Z,18.23
2022-11-20T20:31:33.830Z,18.21
2022-11-20T20:34:36.696Z,18.19
2022-11-20T20:37:39.446Z,18.19
2022-11-20T20:40:49.603Z,18.17
2022-11-20T20:44:10.033Z,18.14
2022-11-20T20:47:12.819Z,18.14
2022-11-20T20:50:15.649Z,18.11
2022-11-20T20:53:18.365Z,18.07
2022-11-20T20:56:22.585Z,18.04
2022-11-20T20:59:25.816Z,18.03
2022-11-20T21:02:28.818Z,18.00
2022-11-20T21:05:31.576Z,18.01
2022-11-20T21:08:36.081Z,17.98
2022-11-20T21:11:42.146Z,17.98
2022-11-20T21:14:44.990Z,17.97
2022-11-20T21:17:47.768Z,18.04
2022-11-20T21:21:08.171Z,18.08
2022-11-20T21:24:10.940Z,18.21
2022-11-20T21:27:15.107Z,18.24
2022-11-20T21:30:18.099Z,18.37
2022-11-20T21:33:20.854Z,18.42
2022-11-20T21:36:24.691Z,18.52
2022-11-20T21:39:30.386Z,18.61
2022-11-20T21:42:34.562Z,18.70
2022-11-20T21:45:37.449Z,18.68
2022-11-20T21:48:41.209Z,18.73
2022-11-20T21:51:44.046Z,18.75
2022-11-20T21:54:46.769Z,18.77
2022-11-20T21:57:50.955Z,18.79
2022-11-20T22:00:53.729Z,18.88
2022-11-20T22:03:57.900Z,18.87
2022-11-20T22:07:00.779Z,18.82
2022-11-20T22:10:03.602Z,18.84
2022-11-20T22:13:26.342Z,18.92
2022-11-20T22:16:29.296Z,19.06
2022-11-20T22:19:32.096Z,19.07
2022-11-20T22:22:34.920Z,19.11
2022-11-20T22:25:37.716Z,19.06
2022-11-20T22:28:41.955Z,19.17
2022-11-20T22:31:44.954Z,19.14
2022-11-20T22:34:47.701Z,19.14
2022-11-20T22:37:50.542Z,19.13
2022-11-20T22:40:53.289Z,19.20
2022-11-20T22:43:58.348Z,19.16
2022-11-20T22:47:01.126Z,19.16
2022-11-20T22:50:03.912Z,19.17
2022-11-20T22:53:06.738Z,19.20
2022-11-20T22:56:10.030Z,19.16
2022-11-20T22:59:14.143Z,19.22
2022-11-20T23:02:16.884Z,19.39
2022-11-20T23:05:19.682Z,19.23
2022-11-20T23:08:22.467Z,19.23
2022-11-20T23:11:26.179Z,19.24
2022-11-20T23:14:31.027Z,19.26
2022-11-20T23:17:33.865Z,19.24
2022-11-20T23:20:36.879Z,19.28
2022-11-20T23:23:39.787Z,19.26
2022-11-20T23:26:43.336Z,19.25
2022-11-20T23:29:47.523Z,19.39
2022-11-20T23:32:50.282Z,19.38
2022-11-20T23:35:53.101Z,19.34
2022-11-20T23:38:55.986Z,19.27
2022-11-20T23:41:58.746Z,19.29
2022-11-20T23:45:02.906Z,19.15
2022-11-20T23:48:06.063Z,19.11
2022-11-20T23:51:08.865Z,19.06
2022-11-20T23:54:11.645Z,19.04
2022-11-20T23:57:14.419Z,19.03
